METAR Data
IDs: Format: Raw Decoded Include TAF

Data at: 0933 UTC 23 Jan 2019

KETN 230915Z AUTO 33015G23KT 10SM CLR M03/M10 A3018 RMK AO2 T10281104
KETN 230855Z AUTO 32015G22KT 10SM CLR M03/M10 A3017 RMK AO2 T10271104
KETN 230835Z AUTO 33013G24KT 10SM CLR M03/M11 A3017 RMK AO2 T10251108
KETN 230815Z AUTO 33014G18KT 10SM CLR M03/M11 A3017 RMK AO2 T10261105
KETN 230755Z AUTO 33013G24KT 10SM CLR M02/M11 A3016 RMK AO2 T10241107
KETN 230735Z AUTO 33020G30KT 10SM CLR M02/M11 A3015 RMK AO2 T10201111
KETN 230715Z AUTO 33017G29KT 10SM CLR M02/M11 A3014 RMK AO2 T10171109
KETN 230655Z AUTO 32016G27KT 10SM CLR M01/M11 A3013 RMK AO2 T10131108
KETN 230635Z AUTO 31017G24KT 10SM CLR M01/M11 A3015 RMK AO2 T10081105
KETN 230615Z AUTO 32016G26KT 10SM CLR M01/M11 A3014 RMK AO2 T10061108
KETN 230555Z AUTO 33021G37KT 10SM CLR 00/M12 A3012 RMK AO2 T10021116 10051 21003
KETN 230535Z AUTO 31025G35KT 10SM CLR 00/M11 A3014 RMK AO2 T00021110
KETN 230515Z AUTO 32018G29KT 10SM SCT120 01/M10 A3013 RMK AO2 T00071103
KETN 230455Z AUTO 33017G32KT 10SM SCT120 01/M10 A3014 RMK AO2 T00091101
KETN 230435Z AUTO 32021G30KT 10SM SCT120 01/M10 A3013 RMK AO2 T00131096
KETN 230415Z AUTO 32015G28KT 10SM BKN110 02/M08 A3013 RMK AO2 LTG DSNT S T00211081
KETN 230355Z AUTO 32012G21KT 10SM OVC100 02/M06 A3012 RMK AO2 T00241060
KETN 230335Z AUTO 33014G22KT 10SM OVC110 03/M06 A3014 RMK AO2 T00261059
KETN 230315Z AUTO 33015G22KT 10SM OVC100 03/M05 A3013 RMK AO2 T00271054
KETN 230255Z AUTO 32015G23KT 10SM SCT080 OVC090 03/M05 A3013 RMK AO2 T00281045
KETN 230235Z AUTO 33014G22KT 10SM OVC100 03/M04 A3014 RMK AO2 T00281039
KETN 230215Z AUTO 33016G25KT 10SM BKN090 OVC110 03/M04 A3012 RMK AO2 T00281038
KETN 230155Z AUTO 33015G24KT 10SM OVC110 03/M03 A3010 RMK AO2 T00291034
KETN 230135Z AUTO 33016G25KT 10SM OVC110 03/M03 A3009 RMK AO2 T00331029
KETN 230115Z AUTO 34014G23KT 10SM OVC110 04/M03 A3008 RMK AO2 T00351030
KETN 230055Z AUTO 34019G25KT 10SM OVC110 04/M03 A3006 RMK AO2 T00381029
KETN 230035Z AUTO 34016G25KT 10SM BKN110 04/M02 A3003 RMK AO2 T00411024
KETN 230015Z AUTO 34017G29KT 10SM SCT110 05/M02 A3002 RMK AO2 T00451023
KETN 222355Z AUTO 33021G30KT 10SM CLR 05/M02 A3000 RMK AO2 T00531015 10167 20052 401670052
KETN 222335Z AUTO 33016G24KT 10SM SCT034 06/M01 A2998 RMK AO2 T00571011
KETN 222315Z AUTO 34013G25KT 10SM SCT034 06/M01 A2996 RMK AO2 T00581009
KETN 222255Z AUTO 33018G25KT 10SM CLR 06/00 A2995 RMK AO2 T00611004
KETN 222235Z AUTO 33015G24KT 10SM CLR 07/00 A2992 RMK AO2 T00690002
KETN 222215Z AUTO 33020G28KT 10SM CLR 08/01 A2991 RMK AO2 T00810008
KETN 222155Z AUTO 35020G25KT 10SM CLR 10/02 A2987 RMK AO2 T00960020
KETN 222135Z AUTO 35018G24KT 10SM CLR 11/03 A2985 RMK AO2 T01060029
KETN 222115Z AUTO 33018G26KT 10SM SCT037 SCT042 BKN048 11/04 A2983 RMK AO2 T01130038
KETN 222055Z AUTO 34019G27KT 10SM SCT035 OVC048 14/06 A2981 RMK AO2 T01420057
KETN 222035Z AUTO 27008KT 10SM SCT037 OVC047 17/08 A2979 RMK AO2 T01660083
KETN 222015Z AUTO 27005KT 10SM BKN037 OVC043 16/09 A2979 RMK AO2 T01610086
KETN 221955Z AUTO 26009KT 10SM SCT032 OVC040 16/09 A2978 RMK AO2 T01640087
KETN 221935Z AUTO 23010KT 10SM BKN030 BKN037 16/09 A2978 RMK AO2 T01610090
KETN 221915Z AUTO 25009KT 10SM SCT026 BKN041 16/09 A2979 RMK AO2 T01600094
KETN 221855Z AUTO 22008KT 10SM OVC043 15/10 A2979 RMK AO2 T01550097
KETN 221835Z AUTO 24008KT 200V260 10SM SCT025 BKN036 OVC045 15/10 A2981 RMK AO2 T01500097
KETN 221815Z AUTO 24011KT 10SM BKN027 OVC033 15/09 A2981 RMK AO2 T01490095
KETN 221755Z AUTO 23009KT 10SM OVC027 15/10 A2980 RMK AO2 T01510096 10152 20132
KETN 221735Z AUTO 22009KT 10SM OVC025 15/10 A2982 RMK AO2 T01490097
KETN 221715Z AUTO 23009KT 10SM OVC025 15/10 A2982 RMK AO2 T01480098
KETN 221655Z AUTO 22012G18KT 10SM OVC025 15/10 A2981 RMK AO2 T01490098
KETN 221635Z AUTO 23009G14KT 10SM OVC023 14/10 A2981 RMK AO2 T01440097
KETN 221615Z AUTO 21015G22KT 10SM OVC023 14/10 A2979 RMK AO2 T01450097
KETN 221555Z AUTO 23008G17KT 10SM OVC023 14/10 A2981 RMK AO2 T01440097
KETN 221535Z AUTO 22008KT 10SM OVC023 14/10 A2980 RMK AO2 T01430097
KETN 221515Z AUTO 22009G18KT 10SM OVC023 14/10 A2978 RMK AO2 T01430097
KETN 221455Z AUTO 19015G25KT 10SM BKN023 14/10 A2975 RMK AO2 T01420097
KETN 221435Z AUTO 18014G23KT 10SM BKN023 14/10 A2973 RMK AO2 T01350095
KETN 221415Z AUTO 18017G27KT 10SM BKN023 13/09 A2973 RMK AO2 T01340094
KETN 221355Z AUTO 18015G20KT 10SM BKN023 13/09 A2973 RMK AO2 T01330094
KETN 221335Z AUTO 18017G22KT 10SM SCT023 13/09 A2972 RMK AO2 T01330093
KETN 221315Z AUTO 18017G22KT 10SM BKN023 13/09 A2972 RMK AO2 T01330093
KETN 221255Z AUTO 18017G23KT 10SM BKN023 13/09 A2972 RMK AO2 T01340093
KETN 221235Z AUTO 18016G23KT 10SM OVC023 13/09 A2971 RMK AO2 T01330093
KETN 221215Z AUTO 18020G27KT 10SM OVC023 13/09 A2971 RMK AO2 T01340093
KETN 221155Z AUTO 18015G25KT 10SM OVC023 13/09 A2971 RMK AO2 T01350093 10137 20119
KETN 221135Z AUTO 18018G27KT 10SM OVC023 13/09 A2970 RMK AO2 T01350093
KETN 221115Z AUTO 18014G25KT 10SM OVC023 13/09 A2971 RMK AO2 T01350092
KETN 221055Z AUTO 18019G30KT 10SM OVC023 13/09 A2971 RMK AO2 T01350092
KETN 221035Z AUTO 17020G27KT 10SM OVC023 13/09 A2972 RMK AO2 T01350091
KETN 221015Z AUTO 18019G27KT 10SM OVC023 13/09 A2973 RMK AO2 T01350091
KETN 220955Z AUTO 18018G26KT 10SM OVC023 13/09 A2973 RMK AO2 T01350091
KETN 220935Z AUTO 17020G29KT 10SM OVC023 14/09 A2974 RMK AO2 T01360091
KETN 220915Z AUTO 18023G29KT 10SM OVC023 14/09 A2975 RMK AO2 T01350091
KETN 220855Z AUTO 18019G29KT 10SM OVC023 14/09 A2975 RMK AO2 T01360092
KETN 220835Z AUTO 18019G29KT 10SM OVC023 13/09 A2975 RMK AO2 T01340092
KETN 220815Z AUTO 17018G25KT 10SM OVC023 13/09 A2976 RMK AO2 T01330092
KETN 220755Z AUTO 18018G25KT 10SM OVC023 13/09 A2977 RMK AO2 T01340093
KETN 220735Z AUTO 17016G26KT 10SM OVC023 13/09 A2978 RMK AO2 T01310092
KETN 220715Z AUTO 17021G29KT 10SM OVC023 13/09 A2978 RMK AO2 T01290090
KETN 220655Z AUTO 17018G26KT 10SM OVC023 13/09 A2978 RMK AO2 T01270088
KETN 220635Z AUTO 17022G27KT 10SM OVC023 12/09 A2979 RMK AO2 T01250085
KETN 220615Z AUTO 17017G24KT 10SM OVC023 12/08 A2979 RMK AO2 T01210082
KETN 220555Z AUTO 17021G28KT 10SM BKN023 12/08 A2980 RMK AO2 T01190079 10147 20114
KETN 220535Z AUTO 17018G29KT 10SM CLR 12/07 A2981 RMK AO2 T01170075
KETN 220515Z AUTO 17016G24KT 10SM CLR 12/07 A2981 RMK AO2 T01160069
KETN 220455Z AUTO 17015G23KT 10SM CLR 12/06 A2982 RMK AO2 T01170064
KETN 220435Z AUTO 17017G25KT 10SM CLR 12/06 A2982 RMK AO2 T01200061
KETN 220415Z AUTO 17016KT 10SM CLR 12/06 A2982 RMK AO2 T01210058
KETN 220355Z AUTO 17016G25KT 10SM CLR 12/05 A2982 RMK AO2 T01220054
KETN 220335Z AUTO 17016G22KT 10SM CLR 12/05 A2983 RMK AO2 T01220053
KETN 220315Z AUTO 17015G18KT 10SM CLR 12/05 A2983 RMK AO2 T01210052
KETN 220255Z AUTO 17012KT 10SM CLR 12/05 A2983 RMK AO2 T01210052
KETN 220235Z AUTO 17013G23KT 10SM CLR 12/05 A2982 RMK AO2 T01190051
KETN 220215Z AUTO 17017G20KT 10SM CLR 12/05 A2983 RMK AO2 T01220050
KETN 220155Z AUTO 17016G24KT 10SM CLR 12/05 A2983 RMK AO2 T01250048
KETN 220135Z AUTO 16017G25KT 10SM CLR 13/04 A2983 RMK AO2 T01260044
KETN 220115Z AUTO 17017G24KT 10SM CLR 13/04 A2983 RMK AO2 T01280040
KETN 220055Z AUTO 16016G24KT 10SM CLR 13/04 A2983 RMK AO2 T01300036
KETN 220035Z AUTO 17017G24KT 10SM CLR 13/03 A2983 RMK AO2 T01330034
KETN 220015Z AUTO 16017G21KT 10SM CLR 14/03 A2982 RMK AO2 T01370029
KETN 212355Z AUTO 17019G29KT 10SM CLR 15/02 A2982 RMK AO2 T01470021 10173 20127 401730013
KETN 212335Z AUTO 16017G26KT 10SM CLR 15/02 A2983 RMK AO2 T01500025
KETN 212315Z AUTO 16020KT 10SM CLR 15/02 A2983 RMK AO2 T01520024
KETN 212255Z AUTO 16017G24KT 10SM CLR 16/02 A2984 RMK AO2 T01560022
KETN 212235Z AUTO 17015G27KT 10SM CLR 16/01 A2985 RMK AO2 T01640014
KETN 212215Z AUTO 17018G28KT 10SM CLR 17/01 A2985 RMK AO2 T01700015
KETN 212155Z AUTO 18018G26KT 10SM CLR 17/00 A2986 RMK AO2 T01690001
KETN 212135Z AUTO 19024G31KT 10SM CLR 17/00 A2987 RMK AO2 T01720001